createdAt,value
2022-12-13T00:01:45.642Z,94.26
2022-12-13T00:04:13.997Z,94.13
2022-12-13T00:06:41.028Z,93.59
2022-12-13T00:09:07.932Z,93.73
2022-12-13T00:11:35.043Z,94.66
2022-12-13T00:14:02.219Z,94.29
2022-12-13T00:16:29.166Z,93.74
2022-12-13T00:19:00.208Z,93.25
2022-12-13T00:21:32.251Z,92.09
2022-12-13T00:24:00.413Z,92.14
2022-12-13T00:26:30.432Z,94.51
2022-12-13T00:29:00.745Z,94.51
2022-12-13T00:31:56.673Z,94.11
2022-12-13T00:34:14.880Z,93.17
2022-12-13T00:36:41.671Z,92.35
2022-12-13T00:39:08.485Z,92.53
2022-12-13T00:41:36.161Z,91.51
2022-12-13T00:44:04.517Z,91.32
2022-12-13T00:46:31.638Z,90.48
2022-12-13T00:49:00.302Z,91.92
2022-12-13T00:51:29.306Z,92.38
2022-12-13T00:53:56.551Z,92.05
2022-12-13T00:56:25.840Z,92.41
2022-12-13T00:58:53.739Z,92.56
2022-12-13T01:01:24.788Z,92.93
2022-12-13T01:03:53.558Z,92.57
2022-12-13T01:06:23.611Z,92.58
2022-12-13T01:08:50.442Z,92.82
2022-12-13T01:11:18.399Z,92.85
2022-12-13T01:13:45.197Z,92.64
2022-12-13T01:16:12.960Z,92.70
2022-12-13T01:18:40.659Z,92.31
2022-12-13T01:21:13.393Z,92.09
2022-12-13T01:23:40.745Z,91.49
2022-12-13T01:26:09.896Z,91.52
2022-12-13T01:28:36.688Z,92.13
2022-12-13T01:31:05.845Z,92.24
2022-12-13T01:33:33.222Z,91.83
2022-12-13T01:36:05.785Z,90.21
2022-12-13T01:38:37.897Z,92.12
2022-12-13T01:41:16.758Z,92.48
2022-12-13T01:43:54.999Z,92.53
2022-12-13T01:46:21.960Z,91.55
2022-12-13T01:49:19.627Z,91.55
2022-12-13T01:51:51.679Z,91.57
2022-12-13T01:54:22.830Z,92.17
2022-12-13T01:56:52.690Z,92.61
2022-12-13T01:59:28.231Z,93.43
2022-12-13T02:02:00.764Z,93.05
2022-12-13T02:04:44.197Z,93.50
2022-12-13T02:07:22.704Z,93.64
2022-12-13T02:09:56.259Z,94.13
2022-12-13T02:12:25.451Z,94.07
2022-12-13T02:15:11.860Z,94.08
2022-12-13T02:18:10.453Z,93.52
2022-12-13T02:21:02.921Z,92.54
2022-12-13T02:24:09.058Z,91.81
2022-12-13T02:26:48.399Z,91.48
2022-12-13T02:29:39.017Z,91.95
2022-12-13T02:32:15.922Z,90.59
2022-12-13T02:35:22.451Z,90.98
2022-12-13T02:38:00.017Z,91.58
2022-12-13T02:40:30.719Z,91.67
2022-12-13T02:43:21.489Z,91.84
2022-12-13T02:45:58.316Z,91.19
2022-12-13T02:48:29.370Z,91.13
2022-12-13T02:50:57.043Z,92.40
2022-12-13T02:53:24.621Z,93.38
2022-12-13T02:55:51.617Z,94.19
2022-12-13T02:58:23.145Z,94.85
2022-12-13T03:01:28.928Z,96.50
2022-12-13T03:04:36.262Z,96.04
2022-12-13T03:07:24.424Z,94.77
2022-12-13T03:10:06.397Z,94.12
2022-12-13T03:12:56.287Z,95.38
2022-12-13T03:15:47.955Z,95.17
2022-12-13T03:18:17.763Z,95.07
2022-12-13T03:20:49.869Z,96.80
2022-12-13T03:23:18.197Z,97.16
2022-12-13T03:25:46.367Z,98.06
2022-12-13T03:28:13.646Z,100.00
2022-12-13T03:30:40.440Z,100.00
2022-12-13T03:33:07.258Z,99.96
2022-12-13T03:35:45.426Z,99.79
2022-12-13T03:38:22.017Z,100.00
2022-12-13T03:40:54.840Z,100.00
2022-12-13T03:43:22.930Z,100.00
2022-12-13T03:45:53.612Z,100.00
2022-12-13T03:48:22.761Z,100.00
2022-12-13T03:50:53.743Z,100.00
2022-12-13T03:53:22.644Z,100.00
2022-12-13T03:55:58.532Z,100.00
2022-12-13T03:58:35.816Z,100.00
2022-12-13T04:01:09.103Z,100.00
2022-12-13T04:03:36.941Z,100.00
2022-12-13T04:06:04.164Z,100.00
2022-12-13T04:08:31.043Z,100.00
2022-12-13T04:10:57.902Z,100.00
2022-12-13T04:13:33.722Z,100.00
2022-12-13T04:16:01.868Z,100.00
2022-12-13T04:18:28.864Z,100.00
2022-12-13T04:20:55.668Z,100.00
2022-12-13T04:23:22.523Z,100.00
2022-12-13T04:25:49.329Z,100.00
2022-12-13T04:28:22.402Z,100.00
2022-12-13T04:30:53.101Z,100.00
2022-12-13T04:33:22.280Z,100.00
2022-12-13T04:35:49.628Z,100.00
2022-12-13T04:38:16.463Z,100.00
2022-12-13T04:40:43.417Z,100.00
2022-12-13T04:43:10.463Z,100.00
2022-12-13T04:45:37.309Z,100.00
2022-12-13T04:48:04.639Z,100.00
2022-12-13T04:50:31.421Z,100.00
2022-12-13T04:52:58.256Z,100.00
2022-12-13T04:55:25.018Z,100.00
2022-12-13T04:57:51.809Z,100.00
2022-12-13T05:00:18.760Z,100.00
2022-12-13T05:02:45.955Z,100.00
2022-12-13T05:05:13.202Z,100.00
2022-12-13T05:07:42.104Z,100.00
2022-12-13T05:10:10.447Z,100.00
2022-12-13T05:12:37.337Z,100.00
2022-12-13T05:15:04.747Z,100.00
2022-12-13T05:17:31.943Z,100.00
2022-12-13T05:19:58.734Z,100.00
2022-12-13T05:22:25.519Z,100.00
2022-12-13T05:24:52.458Z,100.00
2022-12-13T05:27:24.859Z,100.00
2022-12-13T05:30:04.019Z,100.00
2022-12-13T05:32:43.507Z,100.00
2022-12-13T05:35:22.310Z,100.00
2022-12-13T05:37:55.301Z,100.00
2022-12-13T05:40:27.376Z,100.00
2022-12-13T05:43:01.466Z,100.00
2022-12-13T05:45:30.128Z,100.00
2022-12-13T05:47:57.094Z,100.00
2022-12-13T05:50:24.604Z,100.00
2022-12-13T05:52:51.637Z,100.00
2022-12-13T05:55:18.648Z,100.00
2022-12-13T05:57:50.543Z,100.00
2022-12-13T06:00:28.857Z,100.00
2022-12-13T06:03:00.563Z,100.00
2022-12-13T06:05:28.961Z,100.00
2022-12-13T06:07:57.440Z,100.00
2022-12-13T06:10:35.006Z,100.00
2022-12-13T06:13:21.010Z,100.00
2022-12-13T06:15:48.244Z,100.00
2022-12-13T06:18:15.621Z,100.00
2022-12-13T06:20:42.407Z,100.00
2022-12-13T06:23:09.420Z,100.00
2022-12-13T06:25:39.357Z,100.00
2022-12-13T06:28:06.137Z,100.00
2022-12-13T06:30:33.227Z,100.00
2022-12-13T06:33:00.228Z,100.00
2022-12-13T06:35:29.892Z,100.00
2022-12-13T06:38:01.171Z,100.00
2022-12-13T06:40:29.053Z,100.00
2022-12-13T06:42:56.102Z,100.00
2022-12-13T06:45:23.820Z,100.00
2022-12-13T06:47:50.866Z,100.00
2022-12-13T06:50:17.716Z,100.00
2022-12-13T06:52:46.933Z,100.00
2022-12-13T06:55:14.113Z,100.00
2022-12-13T06:57:42.007Z,100.00
2022-12-13T07:00:10.555Z,100.00
2022-12-13T07:02:38.656Z,100.00
2022-12-13T07:05:06.097Z,100.00
2022-12-13T07:07:32.845Z,100.00
2022-12-13T07:09:59.780Z,100.00
2022-12-13T07:12:26.677Z,100.00
2022-12-13T07:14:53.790Z,100.00
2022-12-13T07:17:33.512Z,100.00
2022-12-13T07:20:08.689Z,100.00
2022-12-13T07:22:40.102Z,100.00
2022-12-13T07:25:28.665Z,100.00
2022-12-13T07:28:05.454Z,100.00
2022-12-13T07:30:41.387Z,100.00
2022-12-13T07:33:09.411Z,100.00
2022-12-13T07:35:37.224Z,100.00
2022-12-13T07:38:05.557Z,100.00
2022-12-13T07:40:34.890Z,100.00
2022-12-13T07:43:02.043Z,100.00
2022-12-13T07:45:29.356Z,100.00
2022-12-13T07:47:56.290Z,100.00
2022-12-13T07:50:25.178Z,100.00
2022-12-13T07:52:53.658Z,100.00
2022-12-13T07:55:23.193Z,100.00
2022-12-13T07:58:08.520Z,100.00
2022-12-13T08:00:35.871Z,100.00
2022-12-13T08:03:02.923Z,100.00
2022-12-13T08:05:29.841Z,100.00
2022-12-13T08:08:07.702Z,100.00
2022-12-13T08:10:34.841Z,100.00
2022-12-13T08:13:05.151Z,100.00
2022-12-13T08:15:32.144Z,100.00
2022-12-13T08:18:01.180Z,100.00
2022-12-13T08:20:28.384Z,100.00
2022-12-13T08:23:02.128Z,100.00
2022-12-13T08:25:30.752Z,100.00
2022-12-13T08:28:01.952Z,100.00
2022-12-13T08:30:29.808Z,100.00
2022-12-13T08:32:56.510Z,100.00
2022-12-13T08:35:23.241Z,100.00
2022-12-13T08:37:50.233Z,100.00
2022-12-13T08:40:17.167Z,100.00
2022-12-13T08:42:44.103Z,100.00
2022-12-13T08:45:11.674Z,100.00
2022-12-13T08:47:41.711Z,100.00
2022-12-13T08:50:09.207Z,100.00
2022-12-13T08:52:40.122Z,100.00
2022-12-13T08:55:12.781Z,100.00
2022-12-13T08:57:41.144Z,100.00
2022-12-13T09:00:12.498Z,100.00
2022-12-13T09:02:39.477Z,100.00
2022-12-13T09:05:08.493Z,100.00
2022-12-13T09:07:36.530Z,100.00
2022-12-13T09:10:25.333Z,100.00
2022-12-13T09:12:52.063Z,100.00
2022-12-13T09:15:28.801Z,100.00
2022-12-13T09:18:04.881Z,100.00
2022-12-13T09:20:40.787Z,100.00
2022-12-13T09:23:13.798Z,100.00
2022-12-13T09:26:05.327Z,100.00
2022-12-13T09:28:34.771Z,100.00
2022-12-13T09:31:01.665Z,100.00
2022-12-13T09:33:31.097Z,100.00
2022-12-13T09:35:58.311Z,100.00
2022-12-13T09:38:31.345Z,100.00
2022-12-13T09:41:40.732Z,100.00
2022-12-13T09:44:31.013Z,100.00
2022-12-13T09:47:13.630Z,100.00
2022-12-13T09:49:43.437Z,100.00
2022-12-13T09:52:22.532Z,100.00
2022-12-13T09:54:53.058Z,100.00
2022-12-13T09:57:32.837Z,100.00
2022-12-13T10:00:06.330Z,100.00
2022-12-13T10:02:33.994Z,100.00
2022-12-13T10:05:34.236Z,100.00
2022-12-13T10:08:16.702Z,99.78
2022-12-13T10:10:44.259Z,100.00
2022-12-13T10:13:17.313Z,99.81
2022-12-13T10:15:48.287Z,99.42
2022-12-13T10:18:20.446Z,99.75
2022-12-13T10:20:49.786Z,98.83
2022-12-13T10:23:38.553Z,98.25
2022-12-13T10:26:09.790Z,99.31
2022-12-13T10:28:51.654Z,99.56
2022-12-13T10:31:20.296Z,99.52
2022-12-13T10:33:58.291Z,98.77
2022-12-13T10:36:36.082Z,99.09
2022-12-13T10:39:03.565Z,98.89
2022-12-13T10:41:38.600Z,98.91
2022-12-13T10:44:23.085Z,99.02
2022-12-13T10:47:17.061Z,98.20
2022-12-13T10:49:59.029Z,99.14
2022-12-13T10:52:43.480Z,98.65
2022-12-13T10:55:32.428Z,99.46
2022-12-13T10:58:07.560Z,99.34
2022-12-13T11:00:45.854Z,99.62
2022-12-13T11:03:29.711Z,100.00
2022-12-13T11:06:19.797Z,100.00
2022-12-13T11:08:46.672Z,99.67
2022-12-13T11:11:16.825Z,99.82
2022-12-13T11:13:51.842Z,100.00
2022-12-13T11:16:18.647Z,99.74
2022-12-13T11:18:54.948Z,99.10
2022-12-13T11:21:27.206Z,99.09
2022-12-13T11:23:56.206Z,99.08
2022-12-13T11:26:29.678Z,98.11
2022-12-13T11:29:30.994Z,98.55
2022-12-13T11:32:36.220Z,98.31
2022-12-13T11:35:15.153Z,98.05
2022-12-13T11:38:32.904Z,98.08
2022-12-13T11:41:07.859Z,98.85
2022-12-13T11:43:44.330Z,98.50
2022-12-13T11:46:17.409Z,98.21
2022-12-13T11:48:48.724Z,98.72
2022-12-13T11:51:20.990Z,98.27
2022-12-13T11:54:02.790Z,97.98
2022-12-13T11:56:42.697Z,97.62
2022-12-13T11:59:43.076Z,97.71
2022-12-13T12:02:21.807Z,98.29
2022-12-13T12:04:58.341Z,99.18
2022-12-13T12:07:36.469Z,99.57
2022-12-13T12:10:58.102Z,99.80
2022-12-13T12:14:14.468Z,99.74
2022-12-13T12:16:42.770Z,99.36
2022-12-13T12:19:20.874Z,98.62
2022-12-13T12:22:46.759Z,98.61
2022-12-13T12:25:35.676Z,98.90
2022-12-13T12:28:18.461Z,98.82
2022-12-13T12:30:51.441Z,98.43
2022-12-13T12:33:44.462Z,98.54
2022-12-13T12:36:33.161Z,98.26
2022-12-13T12:39:26.250Z,98.72
2022-12-13T12:42:19.439Z,99.33
2022-12-13T12:45:27.038Z,99.40
2022-12-13T12:48:56.923Z,99.25
2022-12-13T12:51:28.973Z,99.07
2022-12-13T12:54:34.854Z,98.92
2022-12-13T12:57:32.051Z,99.57
2022-12-13T13:00:17.692Z,99.62
2022-12-13T13:03:15.801Z,99.59
2022-12-13T13:06:08.552Z,99.04
2022-12-13T13:08:55.500Z,99.41
2022-12-13T13:11:25.987Z,99.69
2022-12-13T13:14:27.067Z,100.00
2022-12-13T13:16:55.929Z,99.94
2022-12-13T13:19:41.324Z,99.83
2022-12-13T13:22:31.053Z,99.72
2022-12-13T13:25:02.056Z,99.49
2022-12-13T13:27:30.469Z,99.31
2022-12-13T13:30:17.056Z,99.47
2022-12-13T13:32:44.344Z,99.55
2022-12-13T13:35:53.369Z,99.20
2022-12-13T13:38:29.203Z,99.14
2022-12-13T13:40:55.976Z,98.77
2022-12-13T13:43:32.529Z,98.61
2022-12-13T13:46:11.039Z,99.02
2022-12-13T13:48:56.340Z,98.92
2022-12-13T13:52:23.906Z,99.26
2022-12-13T13:54:55.910Z,99.99
2022-12-13T13:58:10.155Z,100.00
2022-12-13T14:01:08.931Z,100.00
2022-12-13T14:04:04.256Z,100.00
2022-12-13T14:07:26.559Z,99.99
2022-12-13T14:10:03.118Z,99.90
2022-12-13T14:13:10.593Z,99.96
2022-12-13T14:16:25.531Z,100.00
2022-12-13T14:19:27.990Z,100.00
2022-12-13T14:22:35.553Z,100.00
2022-12-13T14:25:46.427Z,100.00
2022-12-13T14:28:44.784Z,99.97
2022-12-13T14:31:38.138Z,99.65
2022-12-13T14:34:07.749Z,99.14
2022-12-13T14:36:36.665Z,98.68
2022-12-13T14:39:07.164Z,98.22
2022-12-13T14:41:56.404Z,98.30
2022-12-13T14:44:31.418Z,97.34
2022-12-13T14:47:03.923Z,96.88
2022-12-13T14:49:33.409Z,97.07
2022-12-13T14:52:06.507Z,98.08
2022-12-13T14:54:58.000Z,97.83
2022-12-13T14:57:30.379Z,98.11
2022-12-13T14:59:59.685Z,97.90
2022-12-13T15:02:30.048Z,97.94
2022-12-13T15:05:03.373Z,98.32
2022-12-13T15:07:38.138Z,98.64
2022-12-13T15:10:48.429Z,99.40
2022-12-13T15:13:33.259Z,98.95
2022-12-13T15:16:10.916Z,98.82
2022-12-13T15:18:38.747Z,98.36
2022-12-13T15:21:19.455Z,97.70
2022-12-13T15:23:49.029Z,97.91
2022-12-13T15:26:28.379Z,98.50
2022-12-13T15:29:09.424Z,97.57
2022-12-13T15:31:37.638Z,97.99
2022-12-13T15:34:34.226Z,97.71
2022-12-13T15:37:07.392Z,97.97
2022-12-13T15:39:41.206Z,98.41
2022-12-13T15:42:32.084Z,97.84
2022-12-13T15:45:01.434Z,97.60
2022-12-13T15:47:29.356Z,97.95
2022-12-13T15:50:05.809Z,97.69
2022-12-13T15:52:41.446Z,97.32
2022-12-13T15:55:11.001Z,98.08
2022-12-13T15:57:55.324Z,97.95
2022-12-13T16:00:34.569Z,97.94
2022-12-13T16:03:28.033Z,97.84
2022-12-13T16:05:56.758Z,98.05
2022-12-13T16:08:35.887Z,97.39
2022-12-13T16:11:03.428Z,96.92
2022-12-13T16:13:38.077Z,97.39
2022-12-13T16:16:28.189Z,97.70
2022-12-13T16:18:59.910Z,98.97
2022-12-13T16:21:28.299Z,98.77
2022-12-13T16:23:55.441Z,98.22
2022-12-13T16:26:29.378Z,97.58
2022-12-13T16:28:58.866Z,97.11
2022-12-13T16:31:35.841Z,97.04
2022-12-13T16:34:04.311Z,96.42
2022-12-13T16:36:31.679Z,95.97
2022-12-13T16:38:58.625Z,96.56
2022-12-13T16:41:25.542Z,96.75
2022-12-13T16:43:58.381Z,96.12
2022-12-13T16:47:14.280Z,96.43
2022-12-13T16:49:27.776Z,96.89
2022-12-13T16:51:55.311Z,97.37
2022-12-13T16:54:23.716Z,96.76
2022-12-13T16:56:50.953Z,96.80
2022-12-13T16:59:20.184Z,97.01
2022-12-13T17:01:47.369Z,96.33
2022-12-13T17:04:20.503Z,96.00
2022-12-13T17:06:48.971Z,96.04
2022-12-13T17:09:16.136Z,95.29
2022-12-13T17:11:45.859Z,95.26
2022-12-13T17:14:13.151Z,95.37
2022-12-13T17:16:40.100Z,95.12
2022-12-13T17:19:07.169Z,95.13
2022-12-13T17:21:35.035Z,94.70
2022-12-13T17:24:03.323Z,95.15
2022-12-13T17:26:59.090Z,95.02
2022-12-13T17:29:26.464Z,95.23
2022-12-13T17:31:53.727Z,95.33
2022-12-13T17:34:20.864Z,96.23
2022-12-13T17:36:47.629Z,97.55
2022-12-13T17:39:14.606Z,97.05
2022-12-13T17:41:42.076Z,96.70
2022-12-13T17:44:09.221Z,96.50
2022-12-13T17:46:36.659Z,96.34
2022-12-13T17:49:03.639Z,96.03
2022-12-13T17:51:31.395Z,96.18
2022-12-13T17:53:58.179Z,96.60
2022-12-13T17:56:25.838Z,96.32
2022-12-13T17:58:52.780Z,96.28
2022-12-13T18:01:24.279Z,95.63
2022-12-13T18:03:56.127Z,95.73
2022-12-13T18:06:24.485Z,96.06
2022-12-13T18:08:51.636Z,96.95
2022-12-13T18:11:35.649Z,97.20
2022-12-13T18:14:03.261Z,97.19
2022-12-13T18:16:36.486Z,96.95
2022-12-13T18:19:10.791Z,95.84
2022-12-13T18:21:38.002Z,95.23
2022-12-13T18:24:06.561Z,95.24
2022-12-13T18:26:33.740Z,95.01
2022-12-13T18:29:00.707Z,95.34
2022-12-13T18:31:28.305Z,95.61
2022-12-13T18:33:55.544Z,95.45
2022-12-13T18:36:24.526Z,95.99
2022-12-13T18:38:51.755Z,95.74
2022-12-13T18:41:23.814Z,95.82
2022-12-13T18:44:04.802Z,95.61
2022-12-13T18:46:33.600Z,95.67
2022-12-13T18:49:00.429Z,95.86
2022-12-13T18:51:28.040Z,95.77
2022-12-13T18:53:55.158Z,96.34
2022-12-13T18:56:22.302Z,96.43
2022-12-13T18:58:49.696Z,96.65
2022-12-13T19:01:18.360Z,96.54
2022-12-13T19:03:47.051Z,95.78
2022-12-13T19:06:20.304Z,96.09
2022-12-13T19:08:49.196Z,96.63
2022-12-13T19:11:16.414Z,96.94
2022-12-13T19:13:43.498Z,96.58
2022-12-13T19:16:14.971Z,96.53
2022-12-13T19:18:42.571Z,96.57
2022-12-13T19:21:13.857Z,96.08
2022-12-13T19:23:41.002Z,96.26
2022-12-13T19:26:09.782Z,96.58
2022-12-13T19:28:38.380Z,96.32
2022-12-13T19:31:15.695Z,96.23
2022-12-13T19:33:43.070Z,96.37
2022-12-13T19:36:10.993Z,96.37
2022-12-13T19:38:38.642Z,96.03
2022-12-13T19:41:14.654Z,95.68
2022-12-13T19:43:41.898Z,97.19
2022-12-13T19:46:09.382Z,96.95
2022-12-13T19:48:37.985Z,97.13
2022-12-13T19:51:07.254Z,96.92
2022-12-13T19:53:35.355Z,96.39
2022-12-13T19:56:12.104Z,97.01
2022-12-13T19:58:42.386Z,96.79
2022-12-13T20:01:09.503Z,96.26
2022-12-13T20:03:41.749Z,96.55
2022-12-13T20:06:10.761Z,96.04
2022-12-13T20:08:37.890Z,96.31
2022-12-13T20:11:07.082Z,96.97
2022-12-13T20:13:34.578Z,96.28
2022-12-13T20:16:01.664Z,96.32
2022-12-13T20:18:28.501Z,96.61
2022-12-13T20:21:14.249Z,96.67
2022-12-13T20:23:48.636Z,96.34
2022-12-13T20:26:27.377Z,96.43
2022-12-13T20:28:54.950Z,95.17
2022-12-13T20:31:28.970Z,95.56
2022-12-13T20:33:56.948Z,95.91
2022-12-13T20:36:26.671Z,96.55
2022-12-13T20:38:56.310Z,96.66
2022-12-13T20:41:25.758Z,96.51
2022-12-13T20:43:57.402Z,96.16
2022-12-13T20:46:25.612Z,96.43
2022-12-13T20:48:53.416Z,95.97
2022-12-13T20:51:22.378Z,95.90
2022-12-13T20:53:50.348Z,96.00
2022-12-13T20:56:19.485Z,96.22
2022-12-13T20:58:46.879Z,96.09
2022-12-13T21:01:18.840Z,96.74
2022-12-13T21:03:49.477Z,96.85
2022-12-13T21:06:16.549Z,97.34
2022-12-13T21:08:52.511Z,97.81
2022-12-13T21:11:26.908Z,98.17
2022-12-13T21:14:07.547Z,97.47
2022-12-13T21:16:41.821Z,96.68
2022-12-13T21:19:14.673Z,97.08
2022-12-13T21:21:41.961Z,97.22
2022-12-13T21:24:09.260Z,97.74
2022-12-13T21:26:36.642Z,98.38
2022-12-13T21:29:06.803Z,99.21
2022-12-13T21:31:34.729Z,100.00
2022-12-13T21:34:08.463Z,100.00
2022-12-13T21:36:42.972Z,100.00
2022-12-13T21:39:15.561Z,100.00
2022-12-13T21:41:43.411Z,100.00
2022-12-13T21:44:11.251Z,99.58
2022-12-13T21:49:28.321Z,99.26
2022-12-13T21:51:55.720Z,99.27
2022-12-13T21:54:23.041Z,98.75
2022-12-13T21:57:08.809Z,98.56
2022-12-13T21:59:35.738Z,97.93
2022-12-13T22:02:12.278Z,97.59
2022-12-13T22:04:41.051Z,97.26
2022-12-13T22:07:10.704Z,97.65
2022-12-13T22:09:38.194Z,97.57
2022-12-13T22:12:10.635Z,97.22
2022-12-13T22:14:37.783Z,97.24
2022-12-13T22:17:04.629Z,97.47
2022-12-13T22:19:31.718Z,97.67
2022-12-13T22:21:58.511Z,98.04
2022-12-13T22:24:25.458Z,97.96
2022-12-13T22:26:52.491Z,97.87
2022-12-13T22:29:19.261Z,98.16
2022-12-13T22:31:48.782Z,97.79
2022-12-13T22:34:16.545Z,97.71
2022-12-13T22:36:43.420Z,97.85
2022-12-13T22:39:18.069Z,97.86
2022-12-13T22:41:46.432Z,97.58
2022-12-13T22:44:13.938Z,97.68
2022-12-13T22:46:41.453Z,97.65
2022-12-13T22:49:09.077Z,98.25
2022-12-13T22:51:36.579Z,98.16
2022-12-13T22:54:03.724Z,98.30
2022-12-13T22:56:32.941Z,98.17
2022-12-13T22:59:02.147Z,98.72
2022-12-13T23:01:34.141Z,99.26
2022-12-13T23:04:01.074Z,99.02
2022-12-13T23:06:30.281Z,98.85
2022-12-13T23:09:02.138Z,98.12
2022-12-13T23:11:48.319Z,98.09
2022-12-13T23:14:18.083Z,97.65
2022-12-13T23:16:45.356Z,97.67
2022-12-13T23:19:40.816Z,97.23
2022-12-13T23:22:02.026Z,97.17
2022-12-13T23:24:29.102Z,98.00
2022-12-13T23:26:55.950Z,98.33
2022-12-13T23:29:22.835Z,98.42
2022-12-13T23:31:49.580Z,98.23
2022-12-13T23:34:16.734Z,98.55
2022-12-13T23:36:43.568Z,98.70
2022-12-13T23:39:11.294Z,98.71
2022-12-13T23:41:38.085Z,98.79
2022-12-13T23:44:05.098Z,99.03
2022-12-13T23:46:34.441Z,99.74
2022-12-13T23:49:02.465Z,100.00
2022-12-13T23:51:29.545Z,100.00
2022-12-13T23:53:56.689Z,100.00
2022-12-13T23:56:23.956Z,100.00
2022-12-13T23:58:51.868Z,100.00
